sensor_id;sensor_type;location;lat;lon;timestamp;P1;durP1;ratioP1;P2;durP2;ratioP2
11171;SDS011;5642;50.830;12.082;2023-08-30T00:00:59;1.00;;;1.00;;
11171;SDS011;5642;50.830;12.082;2023-08-30T00:03:25;1.00;;;1.00;;
11171;SDS011;5642;50.830;12.082;2023-08-30T00:05:51;1.27;;;1.17;;
11171;SDS011;5642;50.830;12.082;2023-08-30T00:08:17;1.00;;;1.00;;
11171;SDS011;5642;50.830;12.082;2023-08-30T00:10:47;1.65;;;1.10;;
11171;SDS011;5642;50.830;12.082;2023-08-30T00:13:15;1.85;;;1.20;;
11171;SDS011;5642;50.830;12.082;2023-08-30T00:15:41;1.30;;;1.20;;
11171;SDS011;5642;50.830;12.082;2023-08-30T00:18:07;1.10;;;1.10;;
11171;SDS011;5642;50.830;12.082;2023-08-30T00:20:33;1.15;;;1.15;;
11171;SDS011;5642;50.830;12.082;2023-08-30T00:23:00;1.40;;;1.30;;
11171;SDS011;5642;50.830;12.082;2023-08-30T00:25:26;1.15;;;1.13;;
11171;SDS011;5642;50.830;12.082;2023-08-30T00:27:52;1.42;;;1.33;;
11171;SDS011;5642;50.830;12.082;2023-08-30T00:30:18;1.13;;;1.13;;
11171;SDS011;5642;50.830;12.082;2023-08-30T00:32:46;1.27;;;1.20;;
11171;SDS011;5642;50.830;12.082;2023-08-30T00:35:12;1.35;;;1.30;;
11171;SDS011;5642;50.830;12.082;2023-08-30T00:37:38;1.27;;;1.20;;
11171;SDS011;5642;50.830;12.082;2023-08-30T00:40:04;1.50;;;1.40;;
11171;SDS011;5642;50.830;12.082;2023-08-30T00:42:32;1.40;;;1.30;;
11171;SDS011;5642;50.830;12.082;2023-08-30T00:44:58;1.20;;;1.20;;
11171;SDS011;5642;50.830;12.082;2023-08-30T00:47:24;1.45;;;1.30;;
11171;SDS011;5642;50.830;12.082;2023-08-30T00:49:51;1.25;;;1.15;;
11171;SDS011;5642;50.830;12.082;2023-08-30T00:52:17;1.70;;;1.20;;
11171;SDS011;5642;50.830;12.082;2023-08-30T00:54:43;1.40;;;1.30;;
11171;SDS011;5642;50.830;12.082;2023-08-30T00:57:10;1.35;;;1.27;;
11171;SDS011;5642;50.830;12.082;2023-08-30T00:59:36;1.25;;;1.23;;
11171;SDS011;5642;50.830;12.082;2023-08-30T01:02:03;1.50;;;1.40;;
11171;SDS011;5642;50.830;12.082;2023-08-30T01:04:31;1.50;;;1.35;;
11171;SDS011;5642;50.830;12.082;2023-08-30T01:06:58;1.38;;;1.20;;
11171;SDS011;5642;50.830;12.082;2023-08-30T01:09:24;1.45;;;1.45;;
11171;SDS011;5642;50.830;12.082;2023-08-30T01:14:31;1.40;;;1.30;;
11171;SDS011;5642;50.830;12.082;2023-08-30T01:17:06;2.03;;;1.42;;
11171;SDS011;5642;50.830;12.082;2023-08-30T01:22:15;1.40;;;1.30;;
11171;SDS011;5642;50.830;12.082;2023-08-30T01:24:58;1.30;;;1.20;;
11171;SDS011;5642;50.830;12.082;2023-08-30T01:27:34;1.63;;;1.52;;
11171;SDS011;5642;50.830;12.082;2023-08-30T01:30:04;1.67;;;1.20;;
11171;SDS011;5642;50.830;12.082;2023-08-30T01:32:33;2.45;;;1.20;;
11171;SDS011;5642;50.830;12.082;2023-08-30T01:35:00;1.67;;;1.42;;
11171;SDS011;5642;50.830;12.082;2023-08-30T01:37:28;1.67;;;1.33;;
11171;SDS011;5642;50.830;12.082;2023-08-30T01:39:56;1.75;;;1.20;;
11171;SDS011;5642;50.830;12.082;2023-08-30T01:42:24;1.40;;;1.30;;
11171;SDS011;5642;50.830;12.082;2023-08-30T01:44:52;1.30;;;1.20;;
11171;SDS011;5642;50.830;12.082;2023-08-30T01:47:25;1.20;;;1.20;;
11171;SDS011;5642;50.830;12.082;2023-08-30T01:49:54;1.23;;;1.13;;
11171;SDS011;5642;50.830;12.082;2023-08-30T01:52:21;1.10;;;1.10;;
11171;SDS011;5642;50.830;12.082;2023-08-30T01:54:49;2.22;;;1.10;;
11171;SDS011;5642;50.830;12.082;2023-08-30T01:57:17;1.00;;;1.00;;
11171;SDS011;5642;50.830;12.082;2023-08-30T01:59:43;1.10;;;1.10;;
11171;SDS011;5642;50.830;12.082;2023-08-30T02:02:09;1.50;;;1.25;;
11171;SDS011;5642;50.830;12.082;2023-08-30T02:04:35;1.20;;;1.20;;
11171;SDS011;5642;50.830;12.082;2023-08-30T02:07:05;1.15;;;1.15;;
11171;SDS011;5642;50.830;12.082;2023-08-30T02:09:42;1.10;;;1.10;;
11171;SDS011;5642;50.830;12.082;2023-08-30T02:12:22;1.17;;;1.17;;
11171;SDS011;5642;50.830;12.082;2023-08-30T02:14:53;1.40;;;1.30;;
11171;SDS011;5642;50.830;12.082;2023-08-30T02:17:21;1.15;;;1.13;;
11171;SDS011;5642;50.830;12.082;2023-08-30T02:19:48;1.30;;;1.20;;
11171;SDS011;5642;50.830;12.082;2023-08-30T02:22:14;1.67;;;1.20;;
11171;SDS011;5642;50.830;12.082;2023-08-30T02:24:40;1.40;;;1.30;;
11171;SDS011;5642;50.830;12.082;2023-08-30T02:27:06;1.20;;;1.13;;
11171;SDS011;5642;50.830;12.082;2023-08-30T02:29:32;1.40;;;1.30;;
11171;SDS011;5642;50.830;12.082;2023-08-30T02:31:58;1.30;;;1.23;;
11171;SDS011;5642;50.830;12.082;2023-08-30T02:34:24;3.65;;;1.20;;
11171;SDS011;5642;50.830;12.082;2023-08-30T02:36:50;1.45;;;1.38;;
11171;SDS011;5642;50.830;12.082;2023-08-30T02:39:16;1.20;;;1.20;;
11171;SDS011;5642;50.830;12.082;2023-08-30T02:41:42;1.15;;;1.13;;
11171;SDS011;5642;50.830;12.082;2023-08-30T02:44:08;1.45;;;1.38;;
11171;SDS011;5642;50.830;12.082;2023-08-30T02:46:36;1.45;;;1.20;;
11171;SDS011;5642;50.830;12.082;2023-08-30T02:49:07;1.20;;;1.20;;
11171;SDS011;5642;50.830;12.082;2023-08-30T02:51:34;1.42;;;1.10;;
11171;SDS011;5642;50.830;12.082;2023-08-30T02:54:00;1.08;;;1.08;;
11171;SDS011;5642;50.830;12.082;2023-08-30T02:56:26;1.75;;;1.27;;
11171;SDS011;5642;50.830;12.082;2023-08-30T02:58:53;2.15;;;1.45;;
11171;SDS011;5642;50.830;12.082;2023-08-30T03:01:19;1.40;;;1.30;;
11171;SDS011;5642;50.830;12.082;2023-08-30T03:03:45;1.10;;;1.10;;
11171;SDS011;5642;50.830;12.082;2023-08-30T03:06:12;1.40;;;1.30;;
11171;SDS011;5642;50.830;12.082;2023-08-30T03:08:39;1.20;;;1.10;;
11171;SDS011;5642;50.830;12.082;2023-08-30T03:11:09;1.00;;;1.00;;
11171;SDS011;5642;50.830;12.082;2023-08-30T03:13:36;2.20;;;1.30;;
11171;SDS011;5642;50.830;12.082;2023-08-30T03:16:15;1.25;;;1.10;;
11171;SDS011;5642;50.830;12.082;2023-08-30T03:18:42;1.08;;;1.00;;
11171;SDS011;5642;50.830;12.082;2023-08-30T03:21:09;1.00;;;1.00;;
11171;SDS011;5642;50.830;12.082;2023-08-30T03:23:36;0.88;;;0.88;;
11171;SDS011;5642;50.830;12.082;2023-08-30T03:26:09;1.02;;;1.02;;
11171;SDS011;5642;50.830;12.082;2023-08-30T03:28:40;1.00;;;1.00;;
11171;SDS011;5642;50.830;12.082;2023-08-30T03:31:16;0.93;;;0.93;;
11171;SDS011;5642;50.830;12.082;2023-08-30T03:33:49;1.20;;;0.93;;
11171;SDS011;5642;50.830;12.082;2023-08-30T03:36:16;1.00;;;1.00;;
11171;SDS011;5642;50.830;12.082;2023-08-30T03:38:43;1.15;;;1.08;;
11171;SDS011;5642;50.830;12.082;2023-08-30T03:41:11;1.10;;;1.02;;
11171;SDS011;5642;50.830;12.082;2023-08-30T03:43:38;1.20;;;1.10;;
11171;SDS011;5642;50.830;12.082;2023-08-30T03:46:04;1.48;;;1.10;;
11171;SDS011;5642;50.830;12.082;2023-08-30T03:48:31;1.42;;;1.33;;
11171;SDS011;5642;50.830;12.082;2023-08-30T03:50:57;1.17;;;1.08;;
11171;SDS011;5642;50.830;12.082;2023-08-30T03:53:24;1.63;;;1.10;;
11171;SDS011;5642;50.830;12.082;2023-08-30T03:55:50;1.17;;;1.08;;
11171;SDS011;5642;50.830;12.082;2023-08-30T03:58:20;1.00;;;1.00;;
11171;SDS011;5642;50.830;12.082;2023-08-30T04:01:04;1.40;;;1.00;;
11171;SDS011;5642;50.830;12.082;2023-08-30T04:03:32;1.40;;;1.30;;
11171;SDS011;5642;50.830;12.082;2023-08-30T04:05:58;0.90;;;0.90;;
11171;SDS011;5642;50.830;12.082;2023-08-30T04:08:24;1.15;;;1.15;;
11171;SDS011;5642;50.830;12.082;2023-08-30T04:10:51;1.25;;;1.23;;
11171;SDS011;5642;50.830;12.082;2023-08-30T04:13:18;1.05;;;0.90;;
11171;SDS011;5642;50.830;12.082;2023-08-30T04:15:44;1.20;;;1.20;;
11171;SDS011;5642;50.830;12.082;2023-08-30T04:18:10;1.17;;;1.08;;
11171;SDS011;5642;50.830;12.082;2023-08-30T04:20:36;0.98;;;0.90;;
11171;SDS011;5642;50.830;12.082;2023-08-30T04:23:02;0.88;;;0.88;;
11171;SDS011;5642;50.830;12.082;2023-08-30T04:25:29;2.20;;;1.02;;
11171;SDS011;5642;50.830;12.082;2023-08-30T04:27:56;1.20;;;1.20;;
11171;SDS011;5642;50.830;12.082;2023-08-30T04:30:23;1.48;;;1.38;;
11171;SDS011;5642;50.830;12.082;2023-08-30T04:32:49;1.20;;;1.10;;
11171;SDS011;5642;50.830;12.082;2023-08-30T04:35:15;1.25;;;1.20;;
11171;SDS011;5642;50.830;12.082;2023-08-30T04:37:41;1.00;;;1.00;;
11171;SDS011;5642;50.830;12.082;2023-08-30T04:40:08;1.23;;;1.13;;
11171;SDS011;5642;50.830;12.082;2023-08-30T04:42:35;3.03;;;1.20;;
11171;SDS011;5642;50.830;12.082;2023-08-30T04:45:02;1.15;;;1.15;;
11171;SDS011;5642;50.830;12.082;2023-08-30T04:47:38;1.17;;;1.10;;
11171;SDS011;5642;50.830;12.082;2023-08-30T04:50:22;1.08;;;1.08;;
11171;SDS011;5642;50.830;12.082;2023-08-30T04:52:48;1.50;;;1.05;;
11171;SDS011;5642;50.830;12.082;2023-08-30T04:55:15;1.10;;;1.10;;
11171;SDS011;5642;50.830;12.082;2023-08-30T04:57:41;1.55;;;1.40;;
11171;SDS011;5642;50.830;12.082;2023-08-30T05:00:13;1.10;;;1.10;;
11171;SDS011;5642;50.830;12.082;2023-08-30T05:02:40;1.50;;;1.40;;
11171;SDS011;5642;50.830;12.082;2023-08-30T05:05:09;1.85;;;1.20;;
11171;SDS011;5642;50.830;12.082;2023-08-30T05:07:37;1.60;;;1.50;;
11171;SDS011;5642;50.830;12.082;2023-08-30T05:10:04;1.70;;;1.60;;
11171;SDS011;5642;50.830;12.082;2023-08-30T05:12:34;1.40;;;1.30;;
11171;SDS011;5642;50.830;12.082;2023-08-30T05:15:01;2.33;;;1.35;;
11171;SDS011;5642;50.830;12.082;2023-08-30T05:17:29;1.40;;;1.30;;
11171;SDS011;5642;50.830;12.082;2023-08-30T05:19:56;1.50;;;1.40;;
11171;SDS011;5642;50.830;12.082;2023-08-30T05:22:23;1.50;;;1.40;;
11171;SDS011;5642;50.830;12.082;2023-08-30T05:24:49;1.45;;;1.35;;
11171;SDS011;5642;50.830;12.082;2023-08-30T05:27:16;1.60;;;1.50;;
11171;SDS011;5642;50.830;12.082;2023-08-30T05:29:47;1.70;;;1.60;;
11171;SDS011;5642;50.830;12.082;2023-08-30T05:32:13;1.45;;;1.35;;
11171;SDS011;5642;50.830;12.082;2023-08-30T05:34:42;2.95;;;1.40;;
11171;SDS011;5642;50.830;12.082;2023-08-30T05:37:09;1.48;;;1.38;;
11171;SDS011;5642;50.830;12.082;2023-08-30T05:39:44;1.60;;;1.48;;
11171;SDS011;5642;50.830;12.082;2023-08-30T05:42:10;1.60;;;1.50;;
11171;SDS011;5642;50.830;12.082;2023-08-30T05:44:36;1.65;;;1.50;;
11171;SDS011;5642;50.830;12.082;2023-08-30T05:47:04;1.38;;;1.38;;
11171;SDS011;5642;50.830;12.082;2023-08-30T05:49:31;1.10;;;1.10;;
11171;SDS011;5642;50.830;12.082;2023-08-30T05:51:57;1.40;;;1.30;;
11171;SDS011;5642;50.830;12.082;2023-08-30T05:54:24;1.30;;;1.20;;
11171;SDS011;5642;50.830;12.082;2023-08-30T05:56:55;1.25;;;1.15;;
11171;SDS011;5642;50.830;12.082;2023-08-30T05:59:23;1.33;;;1.27;;
11171;SDS011;5642;50.830;12.082;2023-08-30T06:01:50;1.50;;;1.40;;
11171;SDS011;5642;50.830;12.082;2023-08-30T06:04:20;1.48;;;1.38;;
11171;SDS011;5642;50.830;12.082;2023-08-30T06:06:46;1.20;;;1.20;;
11171;SDS011;5642;50.830;12.082;2023-08-30T06:09:12;1.02;;;1.02;;
11171;SDS011;5642;50.830;12.082;2023-08-30T06:11:38;1.10;;;1.10;;
11171;SDS011;5642;50.830;12.082;2023-08-30T06:14:05;1.27;;;1.17;;
11171;SDS011;5642;50.830;12.082;2023-08-30T06:16:31;1.20;;;1.10;;
11171;SDS011;5642;50.830;12.082;2023-08-30T06:18:58;1.10;;;1.00;;
11171;SDS011;5642;50.830;12.082;2023-08-30T06:21:25;0.90;;;0.90;;
11171;SDS011;5642;50.830;12.082;2023-08-30T06:23:53;0.80;;;0.80;;
11171;SDS011;5642;50.830;12.082;2023-08-30T06:26:20;0.88;;;0.88;;
11171;SDS011;5642;50.830;12.082;2023-08-30T06:28:47;0.90;;;0.90;;
11171;SDS011;5642;50.830;12.082;2023-08-30T06:31:14;1.00;;;1.00;;
11171;SDS011;5642;50.830;12.082;2023-08-30T06:33:43;0.93;;;0.93;;
11171;SDS011;5642;50.830;12.082;2023-08-30T06:36:10;0.80;;;0.80;;
11171;SDS011;5642;50.830;12.082;2023-08-30T06:38:38;0.85;;;0.80;;
11171;SDS011;5642;50.830;12.082;2023-08-30T06:41:05;2.40;;;0.82;;
11171;SDS011;5642;50.830;12.082;2023-08-30T06:43:32;1.00;;;1.00;;
11171;SDS011;5642;50.830;12.082;2023-08-30T06:45:59;1.00;;;1.00;;
11171;SDS011;5642;50.830;12.082;2023-08-30T06:48:28;0.85;;;0.85;;
11171;SDS011;5642;50.830;12.082;2023-08-30T06:51:01;0.90;;;0.90;;
11171;SDS011;5642;50.830;12.082;2023-08-30T06:53:33;3.00;;;0.95;;
11171;SDS011;5642;50.830;12.082;2023-08-30T06:55:59;1.13;;;0.98;;
11171;SDS011;5642;50.830;12.082;2023-08-30T06:58:29;0.90;;;0.90;;
11171;SDS011;5642;50.830;12.082;2023-08-30T07:00:56;0.77;;;0.77;;
11171;SDS011;5642;50.830;12.082;2023-08-30T07:03:26;0.90;;;0.90;;
11171;SDS011;5642;50.830;12.082;2023-08-30T07:05:54;1.20;;;0.77;;
11171;SDS011;5642;50.830;12.082;2023-08-30T07:08:21;1.05;;;0.90;;
11171;SDS011;5642;50.830;12.082;2023-08-30T07:10:48;1.00;;;1.00;;
11171;SDS011;5642;50.830;12.082;2023-08-30T07:13:15;1.63;;;1.02;;
11171;SDS011;5642;50.830;12.082;2023-08-30T07:15:41;0.77;;;0.77;;
11171;SDS011;5642;50.830;12.082;2023-08-30T07:18:12;0.70;;;0.70;;
11171;SDS011;5642;50.830;12.082;2023-08-30T07:20:39;0.90;;;0.90;;
11171;SDS011;5642;50.830;12.082;2023-08-30T07:23:07;0.75;;;0.75;;
11171;SDS011;5642;50.830;12.082;2023-08-30T07:25:40;0.80;;;0.80;;
11171;SDS011;5642;50.830;12.082;2023-08-30T07:28:06;0.75;;;0.75;;
11171;SDS011;5642;50.830;12.082;2023-08-30T07:30:35;0.75;;;0.75;;
11171;SDS011;5642;50.830;12.082;2023-08-30T07:33:01;0.80;;;0.80;;
11171;SDS011;5642;50.830;12.082;2023-08-30T07:35:33;0.70;;;0.70;;
11171;SDS011;5642;50.830;12.082;2023-08-30T07:38:00;0.70;;;0.70;;
11171;SDS011;5642;50.830;12.082;2023-08-30T07:40:27;0.80;;;0.60;;
11171;SDS011;5642;50.830;12.082;2023-08-30T07:42:55;0.60;;;0.60;;
11171;SDS011;5642;50.830;12.082;2023-08-30T07:45:22;0.70;;;0.70;;
11171;SDS011;5642;50.830;12.082;2023-08-30T07:47:48;1.45;;;0.60;;
11171;SDS011;5642;50.830;12.082;2023-08-30T07:50:28;2.88;;;0.55;;
11171;SDS011;5642;50.830;12.082;2023-08-30T07:52:57;0.70;;;0.70;;
11171;SDS011;5642;50.830;12.082;2023-08-30T07:55:24;0.75;;;0.75;;
11171;SDS011;5642;50.830;12.082;2023-08-30T07:57:56;0.85;;;0.70;;
11171;SDS011;5642;50.830;12.082;2023-08-30T08:00:23;0.50;;;0.50;;
11171;SDS011;5642;50.830;12.082;2023-08-30T08:02:50;0.50;;;0.50;;
11171;SDS011;5642;50.830;12.082;2023-08-30T08:05:17;0.70;;;0.70;;
11171;SDS011;5642;50.830;12.082;2023-08-30T08:07:43;0.55;;;0.50;;
11171;SDS011;5642;50.830;12.082;2023-08-30T08:10:13;0.50;;;0.50;;
11171;SDS011;5642;50.830;12.082;2023-08-30T08:12:39;0.47;;;0.47;;
11171;SDS011;5642;50.830;12.082;2023-08-30T08:15:09;0.55;;;0.55;;
11171;SDS011;5642;50.830;12.082;2023-08-30T08:17:45;0.50;;;0.50;;
11171;SDS011;5642;50.830;12.082;2023-08-30T08:20:12;0.50;;;0.50;;
11171;SDS011;5642;50.830;12.082;2023-08-30T08:22:41;0.60;;;0.60;;
11171;SDS011;5642;50.830;12.082;2023-08-30T08:25:15;0.40;;;0.40;;
11171;SDS011;5642;50.830;12.082;2023-08-30T08:28:04;0.40;;;0.40;;
11171;SDS011;5642;50.830;12.082;2023-08-30T08:30:37;0.60;;;0.60;;
11171;SDS011;5642;50.830;12.082;2023-08-30T08:33:04;0.57;;;0.50;;
11171;SDS011;5642;50.830;12.082;2023-08-30T08:35:31;0.40;;;0.40;;
11171;SDS011;5642;50.830;12.082;2023-08-30T08:38:04;0.50;;;0.50;;
11171;SDS011;5642;50.830;12.082;2023-08-30T08:40:30;0.80;;;0.50;;
11171;SDS011;5642;50.830;12.082;2023-08-30T08:42:56;0.70;;;0.70;;
11171;SDS011;5642;50.830;12.082;2023-08-30T08:45:23;0.55;;;0.55;;
11171;SDS011;5642;50.830;12.082;2023-08-30T08:47:52;0.70;;;0.70;;
11171;SDS011;5642;50.830;12.082;2023-08-30T08:50:19;0.60;;;0.60;;
11171;SDS011;5642;50.830;12.082;2023-08-30T08:52:47;0.45;;;0.40;;
11171;SDS011;5642;50.830;12.082;2023-08-30T08:55:13;0.47;;;0.47;;
11171;SDS011;5642;50.830;12.082;2023-08-30T08:57:41;0.73;;;0.50;;
11171;SDS011;5642;50.830;12.082;2023-08-30T09:00:08;0.55;;;0.50;;
11171;SDS011;5642;50.830;12.082;2023-08-30T09:02:53;0.40;;;0.40;;
11171;SDS011;5642;50.830;12.082;2023-08-30T09:05:20;0.38;;;0.38;;
11171;SDS011;5642;50.830;12.082;2023-08-30T09:07:53;0.40;;;0.40;;
11171;SDS011;5642;50.830;12.082;2023-08-30T09:10:22;0.40;;;0.40;;
11171;SDS011;5642;50.830;12.082;2023-08-30T09:12:49;1.63;;;0.80;;
11171;SDS011;5642;50.830;12.082;2023-08-30T09:15:18;0.60;;;0.55;;
11171;SDS011;5642;50.830;12.082;2023-08-30T09:17:58;0.60;;;0.60;;
11171;SDS011;5642;50.830;12.082;2023-08-30T09:20:30;0.40;;;0.40;;
11171;SDS011;5642;50.830;12.082;2023-08-30T09:22:57;0.40;;;0.40;;
11171;SDS011;5642;50.830;12.082;2023-08-30T09:25:27;0.20;;;0.20;;
11171;SDS011;5642;50.830;12.082;2023-08-30T09:27:57;0.43;;;0.43;;
11171;SDS011;5642;50.830;12.082;2023-08-30T09:30:28;0.35;;;0.35;;
11171;SDS011;5642;50.830;12.082;2023-08-30T09:33:02;0.40;;;0.40;;
11171;SDS011;5642;50.830;12.082;2023-08-30T09:35:45;0.25;;;0.25;;
11171;SDS011;5642;50.830;12.082;2023-08-30T09:38:19;0.50;;;0.30;;
11171;SDS011;5642;50.830;12.082;2023-08-30T09:40:45;0.55;;;0.40;;
11171;SDS011;5642;50.830;12.082;2023-08-30T09:43:12;0.38;;;0.38;;
11171;SDS011;5642;50.830;12.082;2023-08-30T09:45:38;0.30;;;0.30;;
11171;SDS011;5642;50.830;12.082;2023-08-30T09:48:10;0.40;;;0.40;;
11171;SDS011;5642;50.830;12.082;2023-08-30T09:50:41;0.50;;;0.50;;
11171;SDS011;5642;50.830;12.082;2023-08-30T09:53:12;0.50;;;0.50;;
11171;SDS011;5642;50.830;12.082;2023-08-30T09:55:42;0.40;;;0.40;;
11171;SDS011;5642;50.830;12.082;2023-08-30T09:58:10;0.40;;;0.40;;
11171;SDS011;5642;50.830;12.082;2023-08-30T10:00:47;0.40;;;0.40;;
11171;SDS011;5642;50.830;12.082;2023-08-30T10:03:23;0.55;;;0.50;;
11171;SDS011;5642;50.830;12.082;2023-08-30T10:05:52;0.60;;;0.60;;
11171;SDS011;5642;50.830;12.082;2023-08-30T10:08:21;0.47;;;0.47;;
11171;SDS011;5642;50.830;12.082;2023-08-30T10:10:59;0.50;;;0.50;;
11171;SDS011;5642;50.830;12.082;2023-08-30T10:13:29;0.40;;;0.40;;
11171;SDS011;5642;50.830;12.082;2023-08-30T10:15:58;0.50;;;0.50;;
11171;SDS011;5642;50.830;12.082;2023-08-30T10:18:33;0.50;;;0.50;;
11171;SDS011;5642;50.830;12.082;2023-08-30T10:21:05;0.50;;;0.50;;
11171;SDS011;5642;50.830;12.082;2023-08-30T10:23:38;0.50;;;0.50;;
11171;SDS011;5642;50.830;12.082;2023-08-30T10:26:11;1.63;;;0.60;;
11171;SDS011;5642;50.830;12.082;2023-08-30T10:28:38;0.68;;;0.68;;
11171;SDS011;5642;50.830;12.082;2023-08-30T10:31:09;0.55;;;0.55;;
11171;SDS011;5642;50.830;12.082;2023-08-30T10:33:48;0.50;;;0.50;;
11171;SDS011;5642;50.830;12.082;2023-08-30T10:36:23;0.50;;;0.50;;
11171;SDS011;5642;50.830;12.082;2023-08-30T10:38:51;0.50;;;0.50;;
11171;SDS011;5642;50.830;12.082;2023-08-30T10:41:31;0.50;;;0.50;;
11171;SDS011;5642;50.830;12.082;2023-08-30T10:44:16;0.50;;;0.50;;
11171;SDS011;5642;50.830;12.082;2023-08-30T10:46:53;0.60;;;0.50;;
11171;SDS011;5642;50.830;12.082;2023-08-30T10:49:21;0.50;;;0.50;;
11171;SDS011;5642;50.830;12.082;2023-08-30T10:51:59;0.50;;;0.50;;
11171;SDS011;5642;50.830;12.082;2023-08-30T10:54:37;0.40;;;0.40;;
11171;SDS011;5642;50.830;12.082;2023-08-30T10:57:12;0.43;;;0.43;;
11171;SDS011;5642;50.830;12.082;2023-08-30T11:00:03;0.30;;;0.30;;
11171;SDS011;5642;50.830;12.082;2023-08-30T11:02:49;0.40;;;0.40;;
11171;SDS011;5642;50.830;12.082;2023-08-30T11:05:20;0.35;;;0.35;;
11171;SDS011;5642;50.830;12.082;2023-08-30T11:07:56;0.93;;;0.43;;
11171;SDS011;5642;50.830;12.082;2023-08-30T11:10:31;0.75;;;0.50;;
11171;SDS011;5642;50.830;12.082;2023-08-30T11:13:03;0.43;;;0.38;;
11171;SDS011;5642;50.830;12.082;2023-08-30T11:15:31;0.32;;;0.32;;
11171;SDS011;5642;50.830;12.082;2023-08-30T11:18:03;0.38;;;0.38;;
11171;SDS011;5642;50.830;12.082;2023-08-30T11:20:31;0.50;;;0.50;;
11171;SDS011;5642;50.830;12.082;2023-08-30T11:23:00;0.40;;;0.40;;
11171;SDS011;5642;50.830;12.082;2023-08-30T11:25:29;0.30;;;0.30;;
11171;SDS011;5642;50.830;12.082;2023-08-30T11:28:03;0.40;;;0.40;;
11171;SDS011;5642;50.830;12.082;2023-08-30T11:30:31;0.40;;;0.40;;
11171;SDS011;5642;50.830;12.082;2023-08-30T11:33:06;0.40;;;0.40;;
11171;SDS011;5642;50.830;12.082;2023-08-30T11:35:41;0.50;;;0.50;;
11171;SDS011;5642;50.830;12.082;2023-08-30T11:38:13;0.38;;;0.38;;
11171;SDS011;5642;50.830;12.082;2023-08-30T11:40:39;0.30;;;0.30;;
11171;SDS011;5642;50.830;12.082;2023-08-30T11:43:08;0.47;;;0.47;;
11171;SDS011;5642;50.830;12.082;2023-08-30T11:45:41;0.35;;;0.35;;
11171;SDS011;5642;50.830;12.082;2023-08-30T11:48:11;0.40;;;0.40;;
11171;SDS011;5642;50.830;12.082;2023-08-30T11:50:40;0.50;;;0.50;;
11171;SDS011;5642;50.830;12.082;2023-08-30T11:53:11;0.30;;;0.30;;
11171;SDS011;5642;50.830;12.082;2023-08-30T11:55:37;1.00;;;0.60;;
11171;SDS011;5642;50.830;12.082;2023-08-30T11:58:17;0.30;;;0.30;;
11171;SDS011;5642;50.830;12.082;2023-08-30T12:00:50;0.38;;;0.38;;
11171;SDS011;5642;50.830;12.082;2023-08-30T12:03:20;0.30;;;0.30;;
11171;SDS011;5642;50.830;12.082;2023-08-30T12:05:50;0.35;;;0.35;;
11171;SDS011;5642;50.830;12.082;2023-08-30T12:08:20;0.35;;;0.35;;
11171;SDS011;5642;50.830;12.082;2023-08-30T12:11:01;0.40;;;0.40;;
11171;SDS011;5642;50.830;12.082;2023-08-30T12:13:36;0.40;;;0.40;;
11171;SDS011;5642;50.830;12.082;2023-08-30T12:16:07;0.50;;;0.50;;
11171;SDS011;5642;50.830;12.082;2023-08-30T12:18:38;0.38;;;0.38;;
11171;SDS011;5642;50.830;12.082;2023-08-30T12:21:07;1.27;;;0.55;;
11171;SDS011;5642;50.830;12.082;2023-08-30T12:23:35;0.40;;;0.40;;
11171;SDS011;5642;50.830;12.082;2023-08-30T12:26:09;0.40;;;0.40;;
11171;SDS011;5642;50.830;12.082;2023-08-30T12:28:39;0.40;;;0.40;;
11171;SDS011;5642;50.830;12.082;2023-08-30T12:31:10;0.30;;;0.30;;
11171;SDS011;5642;50.830;12.082;2023-08-30T12:33:43;1.33;;;0.50;;
11171;SDS011;5642;50.830;12.082;2023-08-30T12:36:10;0.50;;;0.50;;
11171;SDS011;5642;50.830;12.082;2023-08-30T12:38:37;0.30;;;0.30;;
11171;SDS011;5642;50.830;12.082;2023-08-30T12:41:04;0.60;;;0.60;;
11171;SDS011;5642;50.830;12.082;2023-08-30T12:43:33;0.40;;;0.40;;
11171;SDS011;5642;50.830;12.082;2023-08-30T12:45:59;0.50;;;0.50;;
11171;SDS011;5642;50.830;12.082;2023-08-30T12:48:26;0.50;;;0.50;;
11171;SDS011;5642;50.830;12.082;2023-08-30T12:50:54;0.52;;;0.50;;
11171;SDS011;5642;50.830;12.082;2023-08-30T12:53:20;0.57;;;0.50;;
11171;SDS011;5642;50.830;12.082;2023-08-30T12:55:50;0.30;;;0.30;;
11171;SDS011;5642;50.830;12.082;2023-08-30T12:58:16;0.40;;;0.40;;
11171;SDS011;5642;50.830;12.082;2023-08-30T13:00:43;0.43;;;0.43;;
11171;SDS011;5642;50.830;12.082;2023-08-30T13:03:11;0.50;;;0.50;;
11171;SDS011;5642;50.830;12.082;2023-08-30T13:05:37;0.50;;;0.50;;
11171;SDS011;5642;50.830;12.082;2023-08-30T13:08:04;0.93;;;0.60;;
11171;SDS011;5642;50.830;12.082;2023-08-30T13:10:34;0.40;;;0.40;;
11171;SDS011;5642;50.830;12.082;2023-08-30T13:13:01;0.50;;;0.50;;
11171;SDS011;5642;50.830;12.082;2023-08-30T13:15:32;0.40;;;0.40;;
11171;SDS011;5642;50.830;12.082;2023-08-30T13:17:59;0.60;;;0.60;;
11171;SDS011;5642;50.830;12.082;2023-08-30T13:20:29;0.50;;;0.50;;
11171;SDS011;5642;50.830;12.082;2023-08-30T13:22:58;0.65;;;0.55;;
11171;SDS011;5642;50.830;12.082;2023-08-30T13:25:32;0.50;;;0.50;;
11171;SDS011;5642;50.830;12.082;2023-08-30T13:27:58;0.50;;;0.50;;
11171;SDS011;5642;50.830;12.082;2023-08-30T13:30:26;0.50;;;0.50;;
11171;SDS011;5642;50.830;12.082;2023-08-30T13:32:56;0.40;;;0.40;;
11171;SDS011;5642;50.830;12.082;2023-08-30T13:35:23;0.50;;;0.50;;
11171;SDS011;5642;50.830;12.082;2023-08-30T13:37:51;0.40;;;0.40;;
11171;SDS011;5642;50.830;12.082;2023-08-30T13:40:18;0.50;;;0.50;;
11171;SDS011;5642;50.830;12.082;2023-08-30T13:42:50;0.50;;;0.50;;
11171;SDS011;5642;50.830;12.082;2023-08-30T13:45:18;0.40;;;0.40;;
11171;SDS011;5642;50.830;12.082;2023-08-30T13:47:47;0.45;;;0.45;;
11171;SDS011;5642;50.830;12.082;2023-08-30T13:50:18;0.50;;;0.50;;
11171;SDS011;5642;50.830;12.082;2023-08-30T13:52:47;0.50;;;0.50;;
11171;SDS011;5642;50.830;12.082;2023-08-30T13:55:16;0.50;;;0.50;;
11171;SDS011;5642;50.830;12.082;2023-08-30T13:57:42;0.50;;;0.50;;
11171;SDS011;5642;50.830;12.082;2023-08-30T14:00:09;0.50;;;0.50;;
11171;SDS011;5642;50.830;12.082;2023-08-30T14:02:37;0.40;;;0.40;;
11171;SDS011;5642;50.830;12.082;2023-08-30T14:05:03;0.70;;;0.70;;
11171;SDS011;5642;50.830;12.082;2023-08-30T14:07:33;0.50;;;0.50;;
11171;SDS011;5642;50.830;12.082;2023-08-30T14:09:59;0.40;;;0.40;;
11171;SDS011;5642;50.830;12.082;2023-08-30T14:12:26;0.70;;;0.60;;
11171;SDS011;5642;50.830;12.082;2023-08-30T14:14:53;0.50;;;0.50;;
11171;SDS011;5642;50.830;12.082;2023-08-30T14:17:19;0.60;;;0.60;;
11171;SDS011;5642;50.830;12.082;2023-08-30T14:19:45;0.47;;;0.47;;
11171;SDS011;5642;50.830;12.082;2023-08-30T14:22:12;0.60;;;0.60;;
11171;SDS011;5642;50.830;12.082;2023-08-30T14:24:38;0.52;;;0.52;;
11171;SDS011;5642;50.830;12.082;2023-08-30T14:27:05;0.70;;;0.70;;
11171;SDS011;5642;50.830;12.082;2023-08-30T14:29:36;0.60;;;0.60;;
11171;SDS011;5642;50.830;12.082;2023-08-30T14:32:02;0.50;;;0.50;;
11171;SDS011;5642;50.830;12.082;2023-08-30T14:34:30;0.43;;;0.43;;
11171;SDS011;5642;50.830;12.082;2023-08-30T14:36:58;0.60;;;0.60;;
11171;SDS011;5642;50.830;12.082;2023-08-30T14:39:25;0.60;;;0.60;;
11171;SDS011;5642;50.830;12.082;2023-08-30T14:41:51;0.60;;;0.60;;
11171;SDS011;5642;50.830;12.082;2023-08-30T14:44:17;0.50;;;0.50;;
11171;SDS011;5642;50.830;12.082;2023-08-30T14:46:44;0.60;;;0.60;;
11171;SDS011;5642;50.830;12.082;2023-08-30T14:49:11;0.43;;;0.43;;
11171;SDS011;5642;50.830;12.082;2023-08-30T14:51:38;1.13;;;0.50;;
11171;SDS011;5642;50.830;12.082;2023-08-30T14:54:04;0.70;;;0.70;;
11171;SDS011;5642;50.830;12.082;2023-08-30T14:56:32;0.65;;;0.65;;
11171;SDS011;5642;50.830;12.082;2023-08-30T14:58:58;0.80;;;0.80;;
11171;SDS011;5642;50.830;12.082;2023-08-30T15:01:24;0.60;;;0.60;;
11171;SDS011;5642;50.830;12.082;2023-08-30T15:03:51;0.80;;;0.80;;